sensor_id;sensor_type;location;lat;lon;timestamp;temperature;humidity
19385;DHT22;9828;54.122;17.974;2024-02-21T13:28:34;8.30;99.90
19385;DHT22;9828;54.122;17.974;2024-02-21T13:33:56;8.30;99.90
19385;DHT22;9828;54.122;17.974;2024-02-21T13:39:17;8.30;99.90
19385;DHT22;9828;54.122;17.974;2024-02-21T13:44:40;8.30;99.90
19385;DHT22;9828;54.122;17.974;2024-02-21T13:50:02;8.40;99.90
19385;DHT22;9828;54.122;17.974;2024-02-21T13:55:35;8.50;99.90
19385;DHT22;9828;54.122;17.974;2024-02-21T14:00:56;8.50;99.90
19385;DHT22;9828;54.122;17.974;2024-02-21T14:06:18;8.50;99.90
19385;DHT22;9828;54.122;17.974;2024-02-21T14:11:39;8.60;99.90
19385;DHT22;9828;54.122;17.974;2024-02-21T14:17:02;8.60;99.90
19385;DHT22;9828;54.122;17.974;2024-02-21T14:22:24;8.60;99.90
19385;DHT22;9828;54.122;17.974;2024-02-21T14:27:46;8.70;99.90
19385;DHT22;9828;54.122;17.974;2024-02-21T14:33:07;8.70;99.90
19385;DHT22;9828;54.122;17.974;2024-02-21T14:38:29;8.60;99.90
19385;DHT22;9828;54.122;17.974;2024-02-21T14:43:50;8.50;99.90
19385;DHT22;9828;54.122;17.974;2024-02-21T14:49:12;8.60;99.90
19385;DHT22;9828;54.122;17.974;2024-02-21T14:54:33;8.70;99.90
19385;DHT22;9828;54.122;17.974;2024-02-21T14:59:57;9.00;99.90
19385;DHT22;9828;54.122;17.974;2024-02-21T15:05:19;9.00;99.90
19385;DHT22;9828;54.122;17.974;2024-02-21T15:10:41;9.00;99.90
19385;DHT22;9828;54.122;17.974;2024-02-21T15:16:03;8.80;99.90
19385;DHT22;9828;54.122;17.974;2024-02-21T15:21:27;8.70;99.90
19385;DHT22;9828;54.122;17.974;2024-02-21T15:26:49;8.60;99.90
19385;DHT22;9828;54.122;17.974;2024-02-21T15:32:10;8.50;99.90
19385;DHT22;9828;54.122;17.974;2024-02-21T15:37:34;8.40;99.90
19385;DHT22;9828;54.122;17.974;2024-02-21T15:42:55;8.20;99.90
19385;DHT22;9828;54.122;17.974;2024-02-21T15:48:16;8.20;99.90
19385;DHT22;9828;54.122;17.974;2024-02-21T15:53:37;8.10;99.90
19385;DHT22;9828;54.122;17.974;2024-02-21T15:58:59;8.00;99.90
19385;DHT22;9828;54.122;17.974;2024-02-21T16:04:21;8.00;99.90
19385;DHT22;9828;54.122;17.974;2024-02-21T16:09:43;8.00;99.90
19385;DHT22;9828;54.122;17.974;2024-02-21T16:15:06;8.00;99.90
19385;DHT22;9828;54.122;17.974;2024-02-21T16:20:28;7.90;99.90
19385;DHT22;9828;54.122;17.974;2024-02-21T16:25:50;7.90;99.90
19385;DHT22;9828;54.122;17.974;2024-02-21T16:31:11;7.80;99.90
19385;DHT22;9828;54.122;17.974;2024-02-21T16:36:33;7.80;99.90
19385;DHT22;9828;54.122;17.974;2024-02-21T16:41:54;7.70;99.90
19385;DHT22;9828;54.122;17.974;2024-02-21T16:47:19;7.70;99.90
19385;DHT22;9828;54.122;17.974;2024-02-21T16:52:40;7.70;99.90
19385;DHT22;9828;54.122;17.974;2024-02-21T16:58:02;7.70;99.90
19385;DHT22;9828;54.122;17.974;2024-02-21T17:03:27;7.70;99.90
19385;DHT22;9828;54.122;17.974;2024-02-21T17:08:49;7.60;99.90
19385;DHT22;9828;54.122;17.974;2024-02-21T17:14:13;7.60;99.90
19385;DHT22;9828;54.122;17.974;2024-02-21T17:19:34;7.60;99.90
19385;DHT22;9828;54.122;17.974;2024-02-21T17:24:58;7.50;99.90
19385;DHT22;9828;54.122;17.974;2024-02-21T17:30:19;7.60;99.90
19385;DHT22;9828;54.122;17.974;2024-02-21T17:35:43;7.50;99.90
19385;DHT22;9828;54.122;17.974;2024-02-21T17:41:09;7.40;99.90
19385;DHT22;9828;54.122;17.974;2024-02-21T17:46:30;7.30;99.90
19385;DHT22;9828;54.122;17.974;2024-02-21T17:51:52;7.30;99.90
19385;DHT22;9828;54.122;17.974;2024-02-21T17:57:16;7.20;99.90
19385;DHT22;9828;54.122;17.974;2024-02-21T18:02:39;7.10;99.90
19385;DHT22;9828;54.122;17.974;2024-02-21T18:08:01;7.00;99.90
19385;DHT22;9828;54.122;17.974;2024-02-21T18:13:23;7.00;99.90
19385;DHT22;9828;54.122;17.974;2024-02-21T18:18:46;6.90;99.90
19385;DHT22;9828;54.122;17.974;2024-02-21T18:24:07;6.80;99.90
19385;DHT22;9828;54.122;17.974;2024-02-21T18:29:30;6.80;99.90
19385;DHT22;9828;54.122;17.974;2024-02-21T18:34:55;6.90;99.90
19385;DHT22;9828;54.122;17.974;2024-02-21T18:40:17;7.00;99.90
19385;DHT22;9828;54.122;17.974;2024-02-21T18:45:38;6.80;99.90
19385;DHT22;9828;54.122;17.974;2024-02-21T18:51:00;6.80;99.90
19385;DHT22;9828;54.122;17.974;2024-02-21T18:56:21;6.70;99.90
19385;DHT22;9828;54.122;17.974;2024-02-21T19:01:47;6.70;99.90
19385;DHT22;9828;54.122;17.974;2024-02-21T19:07:09;6.60;99.90
19385;DHT22;9828;54.122;17.974;2024-02-21T19:12:30;6.50;99.90
19385;DHT22;9828;54.122;17.974;2024-02-21T19:17:52;6.40;99.90
19385;DHT22;9828;54.122;17.974;2024-02-21T19:23:14;6.40;99.90
19385;DHT22;9828;54.122;17.974;2024-02-21T19:28:37;6.40;99.90
19385;DHT22;9828;54.122;17.974;2024-02-21T19:34:01;6.30;99.90
19385;DHT22;9828;54.122;17.974;2024-02-21T19:39:24;6.20;99.90
19385;DHT22;9828;54.122;17.974;2024-02-21T19:44:47;6.20;99.90
19385;DHT22;9828;54.122;17.974;2024-02-21T19:50:11;6.10;99.90
19385;DHT22;9828;54.122;17.974;2024-02-21T19:55:37;6.10;99.90
19385;DHT22;9828;54.122;17.974;2024-02-21T20:01:00;6.20;99.90
19385;DHT22;9828;54.122;17.974;2024-02-21T20:06:22;6.10;99.90
19385;DHT22;9828;54.122;17.974;2024-02-21T20:11:43;6.10;99.90
19385;DHT22;9828;54.122;17.974;2024-02-21T20:17:05;6.10;99.90
19385;DHT22;9828;54.122;17.974;2024-02-21T20:22:27;6.20;99.90
19385;DHT22;9828;54.122;17.974;2024-02-21T20:27:48;6.20;99.90
19385;DHT22;9828;54.122;17.974;2024-02-21T20:33:11;6.20;99.90
19385;DHT22;9828;54.122;17.974;2024-02-21T20:38:35;6.30;99.90
19385;DHT22;9828;54.122;17.974;2024-02-21T20:43:56;6.30;99.90
19385;DHT22;9828;54.122;17.974;2024-02-21T20:49:18;6.30;99.90
19385;DHT22;9828;54.122;17.974;2024-02-21T20:54:39;6.30;99.90
19385;DHT22;9828;54.122;17.974;2024-02-21T21:00:01;6.30;99.90
19385;DHT22;9828;54.122;17.974;2024-02-21T21:05:22;6.30;99.90
19385;DHT22;9828;54.122;17.974;2024-02-21T21:10:45;6.40;99.90
19385;DHT22;9828;54.122;17.974;2024-02-21T21:16:07;6.40;99.90
19385;DHT22;9828;54.122;17.974;2024-02-21T21:21:28;6.40;99.90
19385;DHT22;9828;54.122;17.974;2024-02-21T21:26:51;6.40;99.90
19385;DHT22;9828;54.122;17.974;2024-02-21T21:32:13;6.40;99.90
19385;DHT22;9828;54.122;17.974;2024-02-21T21:37:34;6.40;99.90
19385;DHT22;9828;54.122;17.974;2024-02-21T21:42:56;6.50;99.90
19385;DHT22;9828;54.122;17.974;2024-02-21T21:48:17;6.50;99.90
19385;DHT22;9828;54.122;17.974;2024-02-21T21:53:38;6.50;99.90
19385;DHT22;9828;54.122;17.974;2024-02-21T21:59:01;6.50;99.90
19385;DHT22;9828;54.122;17.974;2024-02-21T22:04:24;6.60;99.90
19385;DHT22;9828;54.122;17.974;2024-02-21T22:09:46;6.70;99.90
19385;DHT22;9828;54.122;17.974;2024-02-21T22:15:08;6.70;99.90
19385;DHT22;9828;54.122;17.974;2024-02-21T22:20:29;6.70;99.90
19385;DHT22;9828;54.122;17.974;2024-02-21T22:25:54;6.70;99.90
19385;DHT22;9828;54.122;17.974;2024-02-21T22:31:16;6.70;99.90
19385;DHT22;9828;54.122;17.974;2024-02-21T22:36:37;6.80;99.90
19385;DHT22;9828;54.122;17.974;2024-02-21T22:41:59;6.80;99.90
19385;DHT22;9828;54.122;17.974;2024-02-21T22:47:21;6.80;99.90
19385;DHT22;9828;54.122;17.974;2024-02-21T22:52:43;6.90;99.90
19385;DHT22;9828;54.122;17.974;2024-02-21T22:58:06;6.90;99.90
19385;DHT22;9828;54.122;17.974;2024-02-21T23:03:27;6.90;99.90
19385;DHT22;9828;54.122;17.974;2024-02-21T23:08:49;6.90;99.90
19385;DHT22;9828;54.122;17.974;2024-02-21T23:14:10;6.80;99.90
19385;DHT22;9828;54.122;17.974;2024-02-21T23:19:32;6.80;99.90
19385;DHT22;9828;54.122;17.974;2024-02-21T23:24:53;6.80;99.90
19385;DHT22;9828;54.122;17.974;2024-02-21T23:30:15;6.70;99.90
19385;DHT22;9828;54.122;17.974;2024-02-21T23:35:36;6.70;99.90
19385;DHT22;9828;54.122;17.974;2024-02-21T23:40:59;6.70;99.90
19385;DHT22;9828;54.122;17.974;2024-02-21T23:46:20;6.60;99.90
19385;DHT22;9828;54.122;17.974;2024-02-21T23:51:41;6.50;99.90
19385;DHT22;9828;54.122;17.974;2024-02-21T23:57:04;6.50;99.90
